sensor_id;sensor_type;location;lat;lon;timestamp;P1;durP1;ratioP1;P2;durP2;ratioP2
57824;SDS011;43912;44.188;21.094;2022-10-31T00:03:43;91.43;;;73.68;;
57824;SDS011;43912;44.188;21.094;2022-10-31T00:06:09;90.00;;;73.47;;
57824;SDS011;43912;44.188;21.094;2022-10-31T00:08:35;94.28;;;73.50;;
57824;SDS011;43912;44.188;21.094;2022-10-31T00:11:01;90.68;;;72.88;;
57824;SDS011;43912;44.188;21.094;2022-10-31T00:13:28;78.97;;;69.65;;
57824;SDS011;43912;44.188;21.094;2022-10-31T00:15:54;74.50;;;63.42;;
57824;SDS011;43912;44.188;21.094;2022-10-31T00:18:20;72.35;;;62.75;;
57824;SDS011;43912;44.188;21.094;2022-10-31T00:20:46;68.93;;;61.38;;
57824;SDS011;43912;44.188;21.094;2022-10-31T00:23:12;71.18;;;58.70;;
57824;SDS011;43912;44.188;21.094;2022-10-31T00:25:39;74.05;;;60.60;;
57824;SDS011;43912;44.188;21.094;2022-10-31T00:28:06;67.53;;;59.45;;
57824;SDS011;43912;44.188;21.094;2022-10-31T00:30:38;65.35;;;58.42;;
57824;SDS011;43912;44.188;21.094;2022-10-31T00:33:04;68.88;;;58.65;;
57824;SDS011;43912;44.188;21.094;2022-10-31T00:35:30;70.20;;;61.28;;
57824;SDS011;43912;44.188;21.094;2022-10-31T00:37:57;67.82;;;59.53;;
57824;SDS011;43912;44.188;21.094;2022-10-31T00:40:23;68.75;;;59.92;;
57824;SDS011;43912;44.188;21.094;2022-10-31T00:42:49;68.43;;;59.33;;
57824;SDS011;43912;44.188;21.094;2022-10-31T00:45:15;62.72;;;53.53;;
57824;SDS011;43912;44.188;21.094;2022-10-31T00:47:41;65.07;;;57.75;;
57824;SDS011;43912;44.188;21.094;2022-10-31T00:50:07;69.53;;;59.72;;
57824;SDS011;43912;44.188;21.094;2022-10-31T00:52:33;67.20;;;59.95;;
57824;SDS011;43912;44.188;21.094;2022-10-31T00:54:59;67.00;;;56.88;;
57824;SDS011;43912;44.188;21.094;2022-10-31T00:57:26;70.55;;;58.67;;
57824;SDS011;43912;44.188;21.094;2022-10-31T00:59:52;67.03;;;58.60;;
57824;SDS011;43912;44.188;21.094;2022-10-31T01:02:18;69.18;;;59.63;;
57824;SDS011;43912;44.188;21.094;2022-10-31T01:04:44;68.10;;;60.42;;
57824;SDS011;43912;44.188;21.094;2022-10-31T01:07:10;80.00;;;68.78;;
57824;SDS011;43912;44.188;21.094;2022-10-31T01:09:38;85.85;;;73.43;;
57824;SDS011;43912;44.188;21.094;2022-10-31T01:12:05;82.57;;;70.75;;
57824;SDS011;43912;44.188;21.094;2022-10-31T01:14:31;77.13;;;66.75;;
57824;SDS011;43912;44.188;21.094;2022-10-31T01:16:57;78.47;;;66.55;;
57824;SDS011;43912;44.188;21.094;2022-10-31T01:19:23;72.20;;;64.32;;
57824;SDS011;43912;44.188;21.094;2022-10-31T01:21:49;69.15;;;61.08;;
57824;SDS011;43912;44.188;21.094;2022-10-31T01:24:15;68.03;;;59.78;;
57824;SDS011;43912;44.188;21.094;2022-10-31T01:26:41;61.72;;;55.08;;
57824;SDS011;43912;44.188;21.094;2022-10-31T01:29:07;62.08;;;55.33;;
57824;SDS011;43912;44.188;21.094;2022-10-31T01:31:35;66.75;;;58.35;;
57824;SDS011;43912;44.188;21.094;2022-10-31T01:34:02;63.42;;;56.58;;
57824;SDS011;43912;44.188;21.094;2022-10-31T01:36:29;66.65;;;57.38;;
57824;SDS011;43912;44.188;21.094;2022-10-31T01:38:57;64.07;;;57.15;;
57824;SDS011;43912;44.188;21.094;2022-10-31T01:41:24;68.65;;;58.05;;
57824;SDS011;43912;44.188;21.094;2022-10-31T01:44:47;61.42;;;54.80;;
57824;SDS011;43912;44.188;21.094;2022-10-31T01:51:52;58.97;;;52.83;;
57824;SDS011;43912;44.188;21.094;2022-10-31T01:54:21;59.13;;;52.65;;
57824;SDS011;43912;44.188;21.094;2022-10-31T01:56:50;58.42;;;52.13;;
57824;SDS011;43912;44.188;21.094;2022-10-31T01:59:18;59.00;;;52.58;;
57824;SDS011;43912;44.188;21.094;2022-10-31T02:01:45;59.90;;;53.60;;
57824;SDS011;43912;44.188;21.094;2022-10-31T02:04:12;59.58;;;51.90;;
57824;SDS011;43912;44.188;21.094;2022-10-31T02:06:43;64.13;;;56.97;;
57824;SDS011;43912;44.188;21.094;2022-10-31T02:09:10;58.33;;;51.85;;
57824;SDS011;43912;44.188;21.094;2022-10-31T02:11:39;55.38;;;49.63;;
57824;SDS011;43912;44.188;21.094;2022-10-31T02:14:06;57.50;;;51.22;;
57824;SDS011;43912;44.188;21.094;2022-10-31T02:16:32;58.67;;;50.22;;
57824;SDS011;43912;44.188;21.094;2022-10-31T02:18:58;57.08;;;50.80;;
57824;SDS011;43912;44.188;21.094;2022-10-31T02:34:00;59.15;;;52.78;;
57824;SDS011;43912;44.188;21.094;2022-10-31T02:36:28;62.50;;;55.70;;
57824;SDS011;43912;44.188;21.094;2022-10-31T02:41:37;61.58;;;54.70;;
57824;SDS011;43912;44.188;21.094;2022-10-31T02:47:06;56.50;;;50.50;;
57824;SDS011;43912;44.188;21.094;2022-10-31T02:52:13;58.85;;;52.05;;
57824;SDS011;43912;44.188;21.094;2022-10-31T02:54:45;57.92;;;51.40;;
57824;SDS011;43912;44.188;21.094;2022-10-31T02:57:11;59.08;;;50.97;;
57824;SDS011;43912;44.188;21.094;2022-10-31T02:59:39;64.85;;;52.38;;
57824;SDS011;43912;44.188;21.094;2022-10-31T03:15:21;61.30;;;52.08;;
57824;SDS011;43912;44.188;21.094;2022-10-31T03:17:56;58.88;;;52.58;;
57824;SDS011;43912;44.188;21.094;2022-10-31T03:20:27;69.55;;;59.35;;
57824;SDS011;43912;44.188;21.094;2022-10-31T03:22:55;61.55;;;54.30;;
57824;SDS011;43912;44.188;21.094;2022-10-31T03:25:22;60.58;;;53.63;;
57824;SDS011;43912;44.188;21.094;2022-10-31T03:27:48;55.95;;;47.13;;
57824;SDS011;43912;44.188;21.094;2022-10-31T03:30:16;52.00;;;46.53;;
57824;SDS011;43912;44.188;21.094;2022-10-31T03:32:47;52.20;;;44.75;;
57824;SDS011;43912;44.188;21.094;2022-10-31T03:35:15;55.63;;;49.60;;
57824;SDS011;43912;44.188;21.094;2022-10-31T03:37:42;55.10;;;47.22;;
57824;SDS011;43912;44.188;21.094;2022-10-31T03:40:08;54.67;;;48.88;;
57824;SDS011;43912;44.188;21.094;2022-10-31T03:42:38;58.30;;;51.80;;
57824;SDS011;43912;44.188;21.094;2022-10-31T03:45:10;61.05;;;54.25;;
57824;SDS011;43912;44.188;21.094;2022-10-31T03:47:38;57.53;;;51.30;;
57824;SDS011;43912;44.188;21.094;2022-10-31T03:50:05;55.83;;;49.65;;
57824;SDS011;43912;44.188;21.094;2022-10-31T03:52:45;54.75;;;48.78;;
57824;SDS011;43912;44.188;21.094;2022-10-31T03:57:41;58.85;;;48.20;;
57824;SDS011;43912;44.188;21.094;2022-10-31T04:00:10;62.53;;;49.45;;
57824;SDS011;43912;44.188;21.094;2022-10-31T04:02:38;119.72;;;59.92;;
57824;SDS011;43912;44.188;21.094;2022-10-31T04:05:05;125.88;;;66.80;;
57824;SDS011;43912;44.188;21.094;2022-10-31T04:07:33;173.63;;;78.15;;
57824;SDS011;43912;44.188;21.094;2022-10-31T04:10:02;159.00;;;75.15;;
57824;SDS011;43912;44.188;21.094;2022-10-31T04:12:30;101.10;;;66.75;;
57824;SDS011;43912;44.188;21.094;2022-10-31T04:14:56;116.22;;;71.72;;
57824;SDS011;43912;44.188;21.094;2022-10-31T04:17:23;105.65;;;66.35;;
57824;SDS011;43912;44.188;21.094;2022-10-31T04:19:50;211.25;;;87.22;;
57824;SDS011;43912;44.188;21.094;2022-10-31T04:22:16;150.93;;;80.20;;
57824;SDS011;43912;44.188;21.094;2022-10-31T04:24:43;104.55;;;72.15;;
57824;SDS011;43912;44.188;21.094;2022-10-31T04:27:09;115.82;;;75.35;;
57824;SDS011;43912;44.188;21.094;2022-10-31T04:29:35;126.35;;;79.28;;
57824;SDS011;43912;44.188;21.094;2022-10-31T04:32:01;125.53;;;78.32;;
57824;SDS011;43912;44.188;21.094;2022-10-31T04:34:27;111.00;;;71.75;;
57824;SDS011;43912;44.188;21.094;2022-10-31T04:36:53;106.50;;;68.20;;
57824;SDS011;43912;44.188;21.094;2022-10-31T04:39:19;132.90;;;77.03;;
57824;SDS011;43912;44.188;21.094;2022-10-31T04:41:45;108.85;;;72.20;;
57824;SDS011;43912;44.188;21.094;2022-10-31T04:44:11;118.10;;;72.35;;
57824;SDS011;43912;44.188;21.094;2022-10-31T04:46:37;155.68;;;86.07;;
57824;SDS011;43912;44.188;21.094;2022-10-31T04:49:03;146.07;;;80.55;;
57824;SDS011;43912;44.188;21.094;2022-10-31T04:51:29;130.32;;;76.28;;
57824;SDS011;43912;44.188;21.094;2022-10-31T04:53:55;132.13;;;82.53;;
57824;SDS011;43912;44.188;21.094;2022-10-31T04:56:21;100.10;;;68.30;;
57824;SDS011;43912;44.188;21.094;2022-10-31T04:58:48;97.28;;;65.57;;
57824;SDS011;43912;44.188;21.094;2022-10-31T05:01:14;111.80;;;73.40;;
57824;SDS011;43912;44.188;21.094;2022-10-31T05:03:40;143.02;;;78.32;;
57824;SDS011;43912;44.188;21.094;2022-10-31T05:06:06;223.82;;;96.05;;
57824;SDS011;43912;44.188;21.094;2022-10-31T05:08:32;333.77;;;119.20;;
57824;SDS011;43912;44.188;21.094;2022-10-31T05:11:02;199.77;;;97.50;;
57824;SDS011;43912;44.188;21.094;2022-10-31T05:13:28;429.85;;;133.60;;
57824;SDS011;43912;44.188;21.094;2022-10-31T05:15:54;512.40;;;159.50;;
57824;SDS011;43912;44.188;21.094;2022-10-31T05:18:20;418.55;;;133.65;;
57824;SDS011;43912;44.188;21.094;2022-10-31T05:20:47;488.92;;;156.68;;
57824;SDS011;43912;44.188;21.094;2022-10-31T05:23:13;249.65;;;131.50;;
57824;SDS011;43912;44.188;21.094;2022-10-31T05:25:39;241.45;;;125.90;;
57824;SDS011;43912;44.188;21.094;2022-10-31T05:28:05;213.40;;;120.38;;
57824;SDS011;43912;44.188;21.094;2022-10-31T05:30:33;132.75;;;92.75;;
57824;SDS011;43912;44.188;21.094;2022-10-31T05:32:59;158.05;;;95.22;;
57824;SDS011;43912;44.188;21.094;2022-10-31T05:35:29;131.23;;;84.88;;
57824;SDS011;43912;44.188;21.094;2022-10-31T05:37:56;127.93;;;86.00;;
57824;SDS011;43912;44.188;21.094;2022-10-31T05:40:22;142.23;;;87.60;;
57824;SDS011;43912;44.188;21.094;2022-10-31T05:42:52;130.18;;;84.13;;
57824;SDS011;43912;44.188;21.094;2022-10-31T05:45:19;130.30;;;83.55;;
57824;SDS011;43912;44.188;21.094;2022-10-31T05:50:17;131.15;;;86.18;;
57824;SDS011;43912;44.188;21.094;2022-10-31T05:52:44;127.63;;;85.15;;
57824;SDS011;43912;44.188;21.094;2022-10-31T05:55:10;122.70;;;82.88;;
57824;SDS011;43912;44.188;21.094;2022-10-31T05:57:36;134.23;;;86.18;;
57824;SDS011;43912;44.188;21.094;2022-10-31T06:00:03;119.15;;;80.63;;
57824;SDS011;43912;44.188;21.094;2022-10-31T06:02:29;172.52;;;90.10;;
57824;SDS011;43912;44.188;21.094;2022-10-31T06:04:59;156.85;;;90.32;;
57824;SDS011;43912;44.188;21.094;2022-10-31T06:07:26;187.43;;;94.43;;
57824;SDS011;43912;44.188;21.094;2022-10-31T06:09:52;193.45;;;99.50;;
57824;SDS011;43912;44.188;21.094;2022-10-31T06:12:18;147.20;;;96.93;;
57824;SDS011;43912;44.188;21.094;2022-10-31T06:14:44;125.72;;;82.28;;
57824;SDS011;43912;44.188;21.094;2022-10-31T06:17:10;166.13;;;92.93;;
57824;SDS011;43912;44.188;21.094;2022-10-31T06:19:36;190.55;;;90.88;;
57824;SDS011;43912;44.188;21.094;2022-10-31T06:22:02;163.38;;;82.78;;
57824;SDS011;43912;44.188;21.094;2022-10-31T06:24:28;96.40;;;70.65;;
57824;SDS011;43912;44.188;21.094;2022-10-31T06:26:54;114.93;;;71.75;;
57824;SDS011;43912;44.188;21.094;2022-10-31T06:29:20;112.97;;;63.17;;
57824;SDS011;43912;44.188;21.094;2022-10-31T06:31:46;81.85;;;59.05;;
57824;SDS011;43912;44.188;21.094;2022-10-31T06:34:12;83.30;;;55.40;;
57824;SDS011;43912;44.188;21.094;2022-10-31T06:36:38;69.35;;;54.10;;
57824;SDS011;43912;44.188;21.094;2022-10-31T06:39:04;80.32;;;57.15;;
57824;SDS011;43912;44.188;21.094;2022-10-31T06:41:31;72.90;;;55.10;;
57824;SDS011;43912;44.188;21.094;2022-10-31T06:43:57;87.50;;;59.70;;
57824;SDS011;43912;44.188;21.094;2022-10-31T06:46:23;77.03;;;54.53;;
57824;SDS011;43912;44.188;21.094;2022-10-31T06:48:49;64.47;;;49.97;;
57824;SDS011;43912;44.188;21.094;2022-10-31T06:51:15;72.80;;;56.60;;
57824;SDS011;43912;44.188;21.094;2022-10-31T06:53:41;70.15;;;55.55;;
57824;SDS011;43912;44.188;21.094;2022-10-31T06:56:07;75.63;;;55.90;;
57824;SDS011;43912;44.188;21.094;2022-10-31T06:58:33;72.63;;;57.17;;
57824;SDS011;43912;44.188;21.094;2022-10-31T07:00:59;79.68;;;58.25;;
57824;SDS011;43912;44.188;21.094;2022-10-31T07:03:25;83.15;;;63.42;;
57824;SDS011;43912;44.188;21.094;2022-10-31T07:05:52;83.63;;;62.53;;
57824;SDS011;43912;44.188;21.094;2022-10-31T07:08:18;86.97;;;62.13;;
57824;SDS011;43912;44.188;21.094;2022-10-31T07:10:50;78.93;;;59.92;;
57824;SDS011;43912;44.188;21.094;2022-10-31T07:13:16;76.72;;;58.40;;
57824;SDS011;43912;44.188;21.094;2022-10-31T07:15:42;76.15;;;56.85;;
57824;SDS011;43912;44.188;21.094;2022-10-31T07:18:09;73.15;;;55.65;;
57824;SDS011;43912;44.188;21.094;2022-10-31T07:20:36;85.60;;;56.55;;
57824;SDS011;43912;44.188;21.094;2022-10-31T07:23:02;76.43;;;56.58;;
57824;SDS011;43912;44.188;21.094;2022-10-31T07:25:28;86.75;;;60.08;;
57824;SDS011;43912;44.188;21.094;2022-10-31T07:27:54;98.97;;;70.32;;
57824;SDS011;43912;44.188;21.094;2022-10-31T07:30:20;79.57;;;62.67;;
57824;SDS011;43912;44.188;21.094;2022-10-31T07:32:47;62.13;;;55.75;;
57824;SDS011;43912;44.188;21.094;2022-10-31T07:35:15;63.17;;;55.80;;
57824;SDS011;43912;44.188;21.094;2022-10-31T07:37:41;57.20;;;48.08;;
57824;SDS011;43912;44.188;21.094;2022-10-31T07:40:07;53.03;;;46.38;;
57824;SDS011;43912;44.188;21.094;2022-10-31T07:42:34;47.42;;;39.83;;
57824;SDS011;43912;44.188;21.094;2022-10-31T07:45:01;46.00;;;41.05;;
57824;SDS011;43912;44.188;21.094;2022-10-31T07:47:27;46.45;;;41.55;;
57824;SDS011;43912;44.188;21.094;2022-10-31T07:49:53;46.42;;;41.55;;
57824;SDS011;43912;44.188;21.094;2022-10-31T07:52:19;45.08;;;40.22;;
57824;SDS011;43912;44.188;21.094;2022-10-31T07:54:45;44.42;;;39.58;;
57824;SDS011;43912;44.188;21.094;2022-10-31T07:57:11;45.58;;;40.80;;
57824;SDS011;43912;44.188;21.094;2022-10-31T07:59:37;51.25;;;45.85;;
57824;SDS011;43912;44.188;21.094;2022-10-31T08:02:03;49.72;;;44.63;;
57824;SDS011;43912;44.188;21.094;2022-10-31T08:04:33;56.05;;;50.33;;
57824;SDS011;43912;44.188;21.094;2022-10-31T08:06:59;56.03;;;50.63;;
57824;SDS011;43912;44.188;21.094;2022-10-31T08:09:25;55.83;;;50.40;;
57824;SDS011;43912;44.188;21.094;2022-10-31T08:11:52;58.25;;;52.40;;
57824;SDS011;43912;44.188;21.094;2022-10-31T08:14:18;53.03;;;47.38;;
57824;SDS011;43912;44.188;21.094;2022-10-31T08:16:44;53.05;;;47.22;;
57824;SDS011;43912;44.188;21.094;2022-10-31T08:19:10;47.50;;;42.72;;
57824;SDS011;43912;44.188;21.094;2022-10-31T08:21:36;47.72;;;42.58;;
57824;SDS011;43912;44.188;21.094;2022-10-31T08:24:02;46.53;;;41.92;;
57824;SDS011;43912;44.188;21.094;2022-10-31T08:26:29;48.30;;;43.42;;
57824;SDS011;43912;44.188;21.094;2022-10-31T08:28:55;48.75;;;43.80;;
57824;SDS011;43912;44.188;21.094;2022-10-31T08:31:21;43.53;;;38.90;;
57824;SDS011;43912;44.188;21.094;2022-10-31T08:33:48;41.35;;;37.33;;
57824;SDS011;43912;44.188;21.094;2022-10-31T08:36:14;40.50;;;36.38;;
57824;SDS011;43912;44.188;21.094;2022-10-31T08:38:40;41.30;;;36.78;;
57824;SDS011;43912;44.188;21.094;2022-10-31T08:41:06;36.22;;;32.53;;
57824;SDS011;43912;44.188;21.094;2022-10-31T08:43:32;39.08;;;34.95;;
57824;SDS011;43912;44.188;21.094;2022-10-31T08:45:58;37.88;;;34.38;;
57824;SDS011;43912;44.188;21.094;2022-10-31T08:48:24;38.25;;;34.65;;
57824;SDS011;43912;44.188;21.094;2022-10-31T08:50:50;38.28;;;34.50;;
57824;SDS011;43912;44.188;21.094;2022-10-31T08:53:17;38.00;;;34.28;;
57824;SDS011;43912;44.188;21.094;2022-10-31T08:55:44;37.22;;;33.92;;
57824;SDS011;43912;44.188;21.094;2022-10-31T08:58:15;36.97;;;33.38;;
57824;SDS011;43912;44.188;21.094;2022-10-31T09:00:41;37.50;;;34.03;;
57824;SDS011;43912;44.188;21.094;2022-10-31T09:03:11;41.15;;;37.15;;
57824;SDS011;43912;44.188;21.094;2022-10-31T09:05:38;81.75;;;74.95;;
57824;SDS011;43912;44.188;21.094;2022-10-31T09:08:05;43.33;;;39.47;;
57824;SDS011;43912;44.188;21.094;2022-10-31T09:10:32;39.45;;;35.75;;
57824;SDS011;43912;44.188;21.094;2022-10-31T09:12:59;37.67;;;34.30;;
57824;SDS011;43912;44.188;21.094;2022-10-31T09:15:26;38.63;;;35.10;;
57824;SDS011;43912;44.188;21.094;2022-10-31T09:17:52;45.70;;;41.50;;
57824;SDS011;43912;44.188;21.094;2022-10-31T09:20:19;37.30;;;34.03;;
57824;SDS011;43912;44.188;21.094;2022-10-31T09:22:45;38.35;;;34.95;;
57824;SDS011;43912;44.188;21.094;2022-10-31T09:25:11;39.85;;;36.08;;
57824;SDS011;43912;44.188;21.094;2022-10-31T09:27:37;38.97;;;35.30;;
57824;SDS011;43912;44.188;21.094;2022-10-31T09:30:03;37.83;;;34.22;;
57824;SDS011;43912;44.188;21.094;2022-10-31T09:32:30;37.50;;;34.35;;
57824;SDS011;43912;44.188;21.094;2022-10-31T09:34:56;37.55;;;34.25;;
57824;SDS011;43912;44.188;21.094;2022-10-31T09:37:22;34.97;;;31.92;;
57824;SDS011;43912;44.188;21.094;2022-10-31T09:39:48;37.03;;;33.90;;
57824;SDS011;43912;44.188;21.094;2022-10-31T09:50:11;35.90;;;32.75;;
57824;SDS011;43912;44.188;21.094;2022-10-31T09:52:39;37.97;;;31.75;;
57824;SDS011;43912;44.188;21.094;2022-10-31T09:55:15;36.83;;;33.30;;
57824;SDS011;43912;44.188;21.094;2022-10-31T09:57:44;34.97;;;31.98;;
57824;SDS011;43912;44.188;21.094;2022-10-31T10:00:19;33.75;;;30.65;;
57824;SDS011;43912;44.188;21.094;2022-10-31T10:05:41;35.78;;;32.67;;
57824;SDS011;43912;44.188;21.094;2022-10-31T10:08:11;35.55;;;32.17;;
57824;SDS011;43912;44.188;21.094;2022-10-31T10:20:31;34.15;;;30.90;;
57824;SDS011;43912;44.188;21.094;2022-10-31T10:23:21;34.05;;;30.55;;
57824;SDS011;43912;44.188;21.094;2022-10-31T10:25:50;33.90;;;30.88;;
57824;SDS011;43912;44.188;21.094;2022-10-31T10:28:23;33.47;;;30.38;;
57824;SDS011;43912;44.188;21.094;2022-10-31T10:31:14;33.30;;;30.33;;
57824;SDS011;43912;44.188;21.094;2022-10-31T10:33:42;32.95;;;29.75;;
57824;SDS011;43912;44.188;21.094;2022-10-31T10:36:11;36.40;;;32.77;;
57824;SDS011;43912;44.188;21.094;2022-10-31T10:41:06;39.42;;;35.58;;
57824;SDS011;43912;44.188;21.094;2022-10-31T10:43:35;39.35;;;35.30;;
57824;SDS011;43912;44.188;21.094;2022-10-31T10:48:58;32.22;;;29.15;;
57824;SDS011;43912;44.188;21.094;2022-10-31T10:54:00;29.02;;;26.42;;
57824;SDS011;43912;44.188;21.094;2022-10-31T10:58:55;27.60;;;25.20;;
57824;SDS011;43912;44.188;21.094;2022-10-31T11:01:21;28.23;;;25.63;;
57824;SDS011;43912;44.188;21.094;2022-10-31T11:03:48;29.17;;;26.42;;
57824;SDS011;43912;44.188;21.094;2022-10-31T11:06:21;29.75;;;27.05;;
57824;SDS011;43912;44.188;21.094;2022-10-31T11:08:51;28.08;;;25.35;;
57824;SDS011;43912;44.188;21.094;2022-10-31T11:13:44;27.52;;;24.77;;
57824;SDS011;43912;44.188;21.094;2022-10-31T11:16:12;27.98;;;25.42;;
57824;SDS011;43912;44.188;21.094;2022-10-31T11:18:40;28.88;;;26.15;;
57824;SDS011;43912;44.188;21.094;2022-10-31T11:21:17;29.77;;;27.08;;
57824;SDS011;43912;44.188;21.094;2022-10-31T11:23:45;28.65;;;26.05;;
57824;SDS011;43912;44.188;21.094;2022-10-31T11:26:20;31.02;;;28.00;;
57824;SDS011;43912;44.188;21.094;2022-10-31T11:28:56;29.60;;;26.65;;
57824;SDS011;43912;44.188;21.094;2022-10-31T11:31:23;29.00;;;26.08;;
57824;SDS011;43912;44.188;21.094;2022-10-31T11:33:52;29.30;;;26.65;;
57824;SDS011;43912;44.188;21.094;2022-10-31T11:38:48;34.33;;;30.30;;
57824;SDS011;43912;44.188;21.094;2022-10-31T11:41:28;32.22;;;29.17;;
57824;SDS011;43912;44.188;21.094;2022-10-31T11:44:00;30.30;;;27.17;;
57824;SDS011;43912;44.188;21.094;2022-10-31T11:46:34;29.50;;;26.80;;
57824;SDS011;43912;44.188;21.094;2022-10-31T11:49:01;28.55;;;25.63;;
57824;SDS011;43912;44.188;21.094;2022-10-31T11:51:31;35.30;;;32.40;;
57824;SDS011;43912;44.188;21.094;2022-10-31T11:53:58;27.15;;;24.33;;
57824;SDS011;43912;44.188;21.094;2022-10-31T11:56:27;36.65;;;33.92;;
57824;SDS011;43912;44.188;21.094;2022-10-31T11:58:59;35.30;;;32.13;;
57824;SDS011;43912;44.188;21.094;2022-10-31T12:01:28;25.55;;;23.15;;
57824;SDS011;43912;44.188;21.094;2022-10-31T12:03:59;25.38;;;22.88;;
57824;SDS011;43912;44.188;21.094;2022-10-31T12:06:44;28.20;;;25.50;;
57824;SDS011;43912;44.188;21.094;2022-10-31T12:16:45;27.05;;;24.15;;
57824;SDS011;43912;44.188;21.094;2022-10-31T12:32:28;26.20;;;23.80;;
57824;SDS011;43912;44.188;21.094;2022-10-31T12:37:28;32.67;;;29.23;;
57824;SDS011;43912;44.188;21.094;2022-10-31T12:50:18;28.90;;;26.13;;
57824;SDS011;43912;44.188;21.094;2022-10-31T12:52:50;31.85;;;28.52;;
57824;SDS011;43912;44.188;21.094;2022-10-31T12:57:56;29.10;;;26.38;;
57824;SDS011;43912;44.188;21.094;2022-10-31T13:00:24;27.45;;;24.85;;
57824;SDS011;43912;44.188;21.094;2022-10-31T13:05:36;28.15;;;25.35;;
57824;SDS011;43912;44.188;21.094;2022-10-31T13:08:05;29.08;;;25.27;;
57824;SDS011;43912;44.188;21.094;2022-10-31T13:10:40;27.33;;;24.00;;
57824;SDS011;43912;44.188;21.094;2022-10-31T13:13:12;28.20;;;25.27;;
57824;SDS011;43912;44.188;21.094;2022-10-31T13:15:45;27.00;;;24.42;;
57824;SDS011;43912;44.188;21.094;2022-10-31T13:18:13;28.73;;;25.30;;
57824;SDS011;43912;44.188;21.094;2022-10-31T13:20:44;27.58;;;24.63;;
57824;SDS011;43912;44.188;21.094;2022-10-31T13:25:54;30.50;;;27.30;;
57824;SDS011;43912;44.188;21.094;2022-10-31T13:28:24;28.35;;;25.48;;
57824;SDS011;43912;44.188;21.094;2022-10-31T13:30:51;28.27;;;25.30;;
57824;SDS011;43912;44.188;21.094;2022-10-31T13:33:19;28.02;;;25.05;;
57824;SDS011;43912;44.188;21.094;2022-10-31T13:35:52;27.13;;;24.10;;
57824;SDS011;43912;44.188;21.094;2022-10-31T13:40:59;28.40;;;25.48;;
57824;SDS011;43912;44.188;21.094;2022-10-31T13:43:46;25.92;;;23.42;;
57824;SDS011;43912;44.188;21.094;2022-10-31T13:46:26;25.90;;;23.08;;
57824;SDS011;43912;44.188;21.094;2022-10-31T13:49:00;28.58;;;25.67;;
57824;SDS011;43912;44.188;21.094;2022-10-31T13:51:27;28.90;;;25.98;;
57824;SDS011;43912;44.188;21.094;2022-10-31T13:56:21;29.30;;;26.30;;
57824;SDS011;43912;44.188;21.094;2022-10-31T13:58:56;31.60;;;28.13;;
57824;SDS011;43912;44.188;21.094;2022-10-31T14:01:23;34.28;;;30.90;;
57824;SDS011;43912;44.188;21.094;2022-10-31T14:03:57;34.95;;;31.55;;
57824;SDS011;43912;44.188;21.094;2022-10-31T14:06:34;34.80;;;31.25;;
57824;SDS011;43912;44.188;21.094;2022-10-31T14:09:01;36.08;;;32.55;;
57824;SDS011;43912;44.188;21.094;2022-10-31T14:11:27;36.00;;;32.42;;
57824;SDS011;43912;44.188;21.094;2022-10-31T14:13:55;36.35;;;32.88;;
57824;SDS011;43912;44.188;21.094;2022-10-31T14:16:28;39.55;;;35.42;;
57824;SDS011;43912;44.188;21.094;2022-10-31T14:19:05;38.63;;;34.78;;
57824;SDS011;43912;44.188;21.094;2022-10-31T14:21:39;39.67;;;35.63;;
57824;SDS011;43912;44.188;21.094;2022-10-31T14:24:30;39.78;;;35.55;;
57824;SDS011;43912;44.188;21.094;2022-10-31T14:27:01;43.70;;;39.45;;
57824;SDS011;43912;44.188;21.094;2022-10-31T14:29:28;43.28;;;38.90;;
57824;SDS011;43912;44.188;21.094;2022-10-31T14:34:34;48.63;;;43.92;;
57824;SDS011;43912;44.188;21.094;2022-10-31T14:42:34;58.28;;;52.10;;
57824;SDS011;43912;44.188;21.094;2022-10-31T14:55:46;52.40;;;47.00;;
57824;SDS011;43912;44.188;21.094;2022-10-31T14:58:15;49.47;;;44.60;;
57824;SDS011;43912;44.188;21.094;2022-10-31T15:00:43;48.67;;;43.50;;
57824;SDS011;43912;44.188;21.094;2022-10-31T15:05:46;53.65;;;47.72;;
57824;SDS011;43912;44.188;21.094;2022-10-31T15:08:26;64.80;;;58.10;;
57824;SDS011;43912;44.188;21.094;2022-10-31T15:10:52;80.47;;;72.30;;
57824;SDS011;43912;44.188;21.094;2022-10-31T15:13:19;85.35;;;76.82;;
57824;SDS011;43912;44.188;21.094;2022-10-31T15:15:52;90.65;;;81.32;;
57824;SDS011;43912;44.188;21.094;2022-10-31T15:18:21;84.32;;;75.90;;
57824;SDS011;43912;44.188;21.094;2022-10-31T15:20:49;79.85;;;71.68;;
57824;SDS011;43912;44.188;21.094;2022-10-31T15:23:17;74.45;;;66.63;;
57824;SDS011;43912;44.188;21.094;2022-10-31T15:25:46;75.75;;;67.93;;
57824;SDS011;43912;44.188;21.094;2022-10-31T15:28:13;92.85;;;82.78;;
57824;SDS011;43912;44.188;21.094;2022-10-31T15:30:39;98.53;;;88.20;;
57824;SDS011;43912;44.188;21.094;2022-10-31T15:33:25;95.10;;;85.05;;
57824;SDS011;43912;44.188;21.094;2022-10-31T15:35:55;96.25;;;86.60;;
57824;SDS011;43912;44.188;21.094;2022-10-31T15:38:23;95.18;;;85.72;;
57824;SDS011;43912;44.188;21.094;2022-10-31T15:40:57;87.40;;;78.20;;
57824;SDS011;43912;44.188;21.094;2022-10-31T15:43:24;79.43;;;70.68;;
57824;SDS011;43912;44.188;21.094;2022-10-31T15:45:50;70.45;;;62.92;;
57824;SDS011;43912;44.188;21.094;2022-10-31T15:48:17;72.63;;;65.03;;
57824;SDS011;43912;44.188;21.094;2022-10-31T15:50:48;68.43;;;61.00;;
57824;SDS011;43912;44.188;21.094;2022-10-31T15:53:17;66.25;;;55.95;;
57824;SDS011;43912;44.188;21.094;2022-10-31T15:55:57;65.13;;;58.00;;
57824;SDS011;43912;44.188;21.094;2022-10-31T15:58:23;74.55;;;66.55;;
57824;SDS011;43912;44.188;21.094;2022-10-31T16:03:43;150.90;;;121.50;;
57824;SDS011;43912;44.188;21.094;2022-10-31T16:06:19;93.57;;;81.85;;
57824;SDS011;43912;44.188;21.094;2022-10-31T16:08:46;69.90;;;62.17;;
57824;SDS011;43912;44.188;21.094;2022-10-31T16:11:15;70.57;;;63.10;;
57824;SDS011;43912;44.188;21.094;2022-10-31T16:16:20;65.57;;;58.53;;
57824;SDS011;43912;44.188;21.094;2022-10-31T16:18:47;65.03;;;58.05;;
57824;SDS011;43912;44.188;21.094;2022-10-31T16:21:13;65.32;;;56.95;;
57824;SDS011;43912;44.188;21.094;2022-10-31T16:23:43;63.67;;;56.80;;
57824;SDS011;43912;44.188;21.094;2022-10-31T16:26:12;64.95;;;57.60;;
57824;SDS011;43912;44.188;21.094;2022-10-31T16:28:50;62.17;;;55.42;;
57824;SDS011;43912;44.188;21.094;2022-10-31T16:31:24;63.00;;;56.40;;
57824;SDS011;43912;44.188;21.094;2022-10-31T16:33:51;70.53;;;63.08;;
57824;SDS011;43912;44.188;21.094;2022-10-31T16:38:56;67.88;;;58.17;;
57824;SDS011;43912;44.188;21.094;2022-10-31T16:41:22;69.05;;;61.38;;
57824;SDS011;43912;44.188;21.094;2022-10-31T16:43:49;68.82;;;60.60;;
57824;SDS011;43912;44.188;21.094;2022-10-31T16:46:17;71.43;;;63.90;;
57824;SDS011;43912;44.188;21.094;2022-10-31T16:48:44;69.22;;;61.00;;
57824;SDS011;43912;44.188;21.094;2022-10-31T16:51:10;72.00;;;63.60;;